sensor_id;sensor_type;location;lat;lon;timestamp;temperature;humidity
4787;DHT22;62338;48.832;9.422;2023-05-07T00:00:50;14.00;99.90
4787;DHT22;62338;48.832;9.422;2023-05-07T00:02:52;14.00;99.90
4787;DHT22;62338;48.832;9.422;2023-05-07T00:04:54;14.10;99.90
4787;DHT22;62338;48.832;9.422;2023-05-07T00:06:57;14.10;99.90
4787;DHT22;62338;48.832;9.422;2023-05-07T00:08:59;14.10;99.90
4787;DHT22;62338;48.832;9.422;2023-05-07T00:11:01;14.10;99.90
4787;DHT22;62338;48.832;9.422;2023-05-07T00:13:03;14.10;99.90
4787;DHT22;62338;48.832;9.422;2023-05-07T00:15:05;14.00;99.90
4787;DHT22;62338;48.832;9.422;2023-05-07T00:17:08;14.00;99.90
4787;DHT22;62338;48.832;9.422;2023-05-07T00:19:09;14.00;99.90
4787;DHT22;62338;48.832;9.422;2023-05-07T00:21:11;14.00;99.90
4787;DHT22;62338;48.832;9.422;2023-05-07T00:23:13;14.00;99.90
4787;DHT22;62338;48.832;9.422;2023-05-07T00:25:14;14.00;99.90
4787;DHT22;62338;48.832;9.422;2023-05-07T00:27:16;14.00;99.90
4787;DHT22;62338;48.832;9.422;2023-05-07T00:29:18;14.00;99.90
4787;DHT22;62338;48.832;9.422;2023-05-07T00:31:20;14.00;99.90
4787;DHT22;62338;48.832;9.422;2023-05-07T00:33:21;14.00;99.90
4787;DHT22;62338;48.832;9.422;2023-05-07T00:35:23;14.00;99.90
4787;DHT22;62338;48.832;9.422;2023-05-07T00:37:25;14.00;99.90
4787;DHT22;62338;48.832;9.422;2023-05-07T00:39:27;14.00;99.90
4787;DHT22;62338;48.832;9.422;2023-05-07T00:41:29;13.90;99.90
4787;DHT22;62338;48.832;9.422;2023-05-07T00:43:32;13.90;99.90
4787;DHT22;62338;48.832;9.422;2023-05-07T00:45:34;14.00;92.40
4787;DHT22;62338;48.832;9.422;2023-05-07T00:47:36;14.00;99.90
4787;DHT22;62338;48.832;9.422;2023-05-07T00:49:41;13.90;99.90
4787;DHT22;62338;48.832;9.422;2023-05-07T00:51:44;13.90;99.90
4787;DHT22;62338;48.832;9.422;2023-05-07T00:53:46;13.90;99.90
4787;DHT22;62338;48.832;9.422;2023-05-07T00:55:48;13.90;99.90
4787;DHT22;62338;48.832;9.422;2023-05-07T00:57:51;13.80;99.90
4787;DHT22;62338;48.832;9.422;2023-05-07T00:59:53;13.80;99.90
4787;DHT22;62338;48.832;9.422;2023-05-07T01:01:54;13.80;99.90
4787;DHT22;62338;48.832;9.422;2023-05-07T01:03:56;13.80;99.90
4787;DHT22;62338;48.832;9.422;2023-05-07T01:06:00;13.70;99.90
4787;DHT22;62338;48.832;9.422;2023-05-07T01:08:04;13.70;99.90
4787;DHT22;62338;48.832;9.422;2023-05-07T01:10:07;13.70;99.90
4787;DHT22;62338;48.832;9.422;2023-05-07T01:12:10;13.70;99.90
4787;DHT22;62338;48.832;9.422;2023-05-07T01:14:12;13.70;99.90
4787;DHT22;62338;48.832;9.422;2023-05-07T01:16:14;13.60;99.90
4787;DHT22;62338;48.832;9.422;2023-05-07T01:18:16;13.70;99.90
4787;DHT22;62338;48.832;9.422;2023-05-07T01:20:18;13.60;99.90
4787;DHT22;62338;48.832;9.422;2023-05-07T01:22:34;13.60;99.90
4787;DHT22;62338;48.832;9.422;2023-05-07T01:24:38;13.60;99.90
4787;DHT22;62338;48.832;9.422;2023-05-07T01:26:40;13.60;99.90
4787;DHT22;62338;48.832;9.422;2023-05-07T01:28:41;13.50;99.90
4787;DHT22;62338;48.832;9.422;2023-05-07T01:30:46;13.50;99.90
4787;DHT22;62338;48.832;9.422;2023-05-07T01:32:58;13.50;99.90
4787;DHT22;62338;48.832;9.422;2023-05-07T01:35:01;13.50;99.90
4787;DHT22;62338;48.832;9.422;2023-05-07T01:37:04;13.40;99.90
4787;DHT22;62338;48.832;9.422;2023-05-07T01:39:07;13.40;99.90
4787;DHT22;62338;48.832;9.422;2023-05-07T01:41:09;13.40;99.90
4787;DHT22;62338;48.832;9.422;2023-05-07T01:43:11;13.40;99.90
4787;DHT22;62338;48.832;9.422;2023-05-07T01:45:13;13.30;99.90
4787;DHT22;62338;48.832;9.422;2023-05-07T01:47:16;13.30;99.90
4787;DHT22;62338;48.832;9.422;2023-05-07T01:49:18;13.30;99.90
4787;DHT22;62338;48.832;9.422;2023-05-07T01:51:20;13.30;99.90
4787;DHT22;62338;48.832;9.422;2023-05-07T01:53:23;13.30;99.90
4787;DHT22;62338;48.832;9.422;2023-05-07T01:55:25;13.30;99.90
4787;DHT22;62338;48.832;9.422;2023-05-07T01:57:27;13.30;99.90
4787;DHT22;62338;48.832;9.422;2023-05-07T01:59:28;13.30;99.90
4787;DHT22;62338;48.832;9.422;2023-05-07T02:01:30;13.20;99.90
4787;DHT22;62338;48.832;9.422;2023-05-07T02:03:32;13.20;99.90
4787;DHT22;62338;48.832;9.422;2023-05-07T02:05:34;13.20;99.90
4787;DHT22;62338;48.832;9.422;2023-05-07T02:07:36;13.20;99.90
4787;DHT22;62338;48.832;9.422;2023-05-07T02:09:38;13.20;99.90
4787;DHT22;62338;48.832;9.422;2023-05-07T02:11:39;13.20;99.90
4787;DHT22;62338;48.832;9.422;2023-05-07T02:13:41;13.20;99.90
4787;DHT22;62338;48.832;9.422;2023-05-07T02:15:43;13.20;99.90
4787;DHT22;62338;48.832;9.422;2023-05-07T02:18:02;13.20;99.90
4787;DHT22;62338;48.832;9.422;2023-05-07T02:20:05;13.20;99.90
4787;DHT22;62338;48.832;9.422;2023-05-07T02:22:09;13.20;99.90
4787;DHT22;62338;48.832;9.422;2023-05-07T02:24:11;13.20;99.90
4787;DHT22;62338;48.832;9.422;2023-05-07T02:26:13;13.20;99.90
4787;DHT22;62338;48.832;9.422;2023-05-07T02:28:14;13.10;99.90
4787;DHT22;62338;48.832;9.422;2023-05-07T02:30:16;13.10;99.90
4787;DHT22;62338;48.832;9.422;2023-05-07T02:32:18;13.10;99.90
4787;DHT22;62338;48.832;9.422;2023-05-07T02:34:20;13.00;99.90
4787;DHT22;62338;48.832;9.422;2023-05-07T02:36:22;13.10;99.90
4787;DHT22;62338;48.832;9.422;2023-05-07T02:38:23;13.10;99.90
4787;DHT22;62338;48.832;9.422;2023-05-07T02:40:25;13.00;99.90
4787;DHT22;62338;48.832;9.422;2023-05-07T02:42:27;13.00;99.90
4787;DHT22;62338;48.832;9.422;2023-05-07T02:44:28;13.00;99.90
4787;DHT22;62338;48.832;9.422;2023-05-07T02:46:33;13.00;99.90
4787;DHT22;62338;48.832;9.422;2023-05-07T02:48:35;13.10;99.90
4787;DHT22;62338;48.832;9.422;2023-05-07T02:50:36;13.10;99.90
4787;DHT22;62338;48.832;9.422;2023-05-07T02:52:38;13.10;99.90
4787;DHT22;62338;48.832;9.422;2023-05-07T02:54:40;13.10;99.90
4787;DHT22;62338;48.832;9.422;2023-05-07T02:56:41;13.10;99.90
4787;DHT22;62338;48.832;9.422;2023-05-07T02:58:43;13.10;99.90
4787;DHT22;62338;48.832;9.422;2023-05-07T03:00:45;13.00;99.90
4787;DHT22;62338;48.832;9.422;2023-05-07T03:02:47;13.00;99.90
4787;DHT22;62338;48.832;9.422;2023-05-07T03:04:49;13.00;99.90
4787;DHT22;62338;48.832;9.422;2023-05-07T03:06:50;13.00;99.90
4787;DHT22;62338;48.832;9.422;2023-05-07T03:08:52;13.00;99.90
4787;DHT22;62338;48.832;9.422;2023-05-07T03:10:54;13.00;99.90
4787;DHT22;62338;48.832;9.422;2023-05-07T03:12:56;13.00;99.90
4787;DHT22;62338;48.832;9.422;2023-05-07T03:14:57;13.00;1.00
4787;DHT22;62338;48.832;9.422;2023-05-07T03:16:59;12.90;1.00
4787;DHT22;62338;48.832;9.422;2023-05-07T03:19:01;12.80;1.00
4787;DHT22;62338;48.832;9.422;2023-05-07T03:21:03;12.80;1.00
4787;DHT22;62338;48.832;9.422;2023-05-07T03:23:04;12.70;1.00
4787;DHT22;62338;48.832;9.422;2023-05-07T03:25:08;12.70;1.00
4787;DHT22;62338;48.832;9.422;2023-05-07T03:27:10;12.60;1.00
4787;DHT22;62338;48.832;9.422;2023-05-07T03:29:11;12.60;1.00
4787;DHT22;62338;48.832;9.422;2023-05-07T03:31:13;12.60;1.00
4787;DHT22;62338;48.832;9.422;2023-05-07T03:33:15;12.60;1.00
4787;DHT22;62338;48.832;9.422;2023-05-07T03:35:17;12.60;1.00
4787;DHT22;62338;48.832;9.422;2023-05-07T03:37:19;12.60;1.00
4787;DHT22;62338;48.832;9.422;2023-05-07T03:39:20;12.60;1.00
4787;DHT22;62338;48.832;9.422;2023-05-07T03:41:22;12.50;1.00
4787;DHT22;62338;48.832;9.422;2023-05-07T03:43:24;12.50;1.00
4787;DHT22;62338;48.832;9.422;2023-05-07T03:45:26;12.60;1.00
4787;DHT22;62338;48.832;9.422;2023-05-07T03:47:27;12.60;1.00
4787;DHT22;62338;48.832;9.422;2023-05-07T03:49:29;12.60;1.00
4787;DHT22;62338;48.832;9.422;2023-05-07T03:51:31;12.60;1.00
4787;DHT22;62338;48.832;9.422;2023-05-07T03:53:32;12.60;1.00
4787;DHT22;62338;48.832;9.422;2023-05-07T03:55:34;12.60;1.00
4787;DHT22;62338;48.832;9.422;2023-05-07T03:57:37;12.60;1.00
4787;DHT22;62338;48.832;9.422;2023-05-07T03:59:38;12.60;1.00
4787;DHT22;62338;48.832;9.422;2023-05-07T04:01:40;12.60;1.00
4787;DHT22;62338;48.832;9.422;2023-05-07T04:03:42;12.50;1.00
4787;DHT22;62338;48.832;9.422;2023-05-07T04:05:44;12.60;1.00
4787;DHT22;62338;48.832;9.422;2023-05-07T04:07:46;12.60;1.00
4787;DHT22;62338;48.832;9.422;2023-05-07T04:09:47;12.60;1.00
4787;DHT22;62338;48.832;9.422;2023-05-07T04:11:49;12.60;1.00
4787;DHT22;62338;48.832;9.422;2023-05-07T04:13:51;12.60;1.00
4787;DHT22;62338;48.832;9.422;2023-05-07T04:15:55;12.70;1.00
4787;DHT22;62338;48.832;9.422;2023-05-07T04:17:56;12.70;1.00
4787;DHT22;62338;48.832;9.422;2023-05-07T04:19:59;12.80;1.00
4787;DHT22;62338;48.832;9.422;2023-05-07T04:22:00;12.80;1.00
4787;DHT22;62338;48.832;9.422;2023-05-07T04:24:05;12.80;1.00
4787;DHT22;62338;48.832;9.422;2023-05-07T04:26:07;12.90;1.00
4787;DHT22;62338;48.832;9.422;2023-05-07T04:28:08;12.90;1.00
4787;DHT22;62338;48.832;9.422;2023-05-07T04:30:11;12.90;1.00
4787;DHT22;62338;48.832;9.422;2023-05-07T04:32:13;13.00;1.00
4787;DHT22;62338;48.832;9.422;2023-05-07T04:34:15;13.00;1.00
4787;DHT22;62338;48.832;9.422;2023-05-07T04:36:18;13.10;1.00
4787;DHT22;62338;48.832;9.422;2023-05-07T04:38:20;13.10;1.00
4787;DHT22;62338;48.832;9.422;2023-05-07T04:40:22;13.20;1.00
4787;DHT22;62338;48.832;9.422;2023-05-07T04:42:23;13.20;1.00
4787;DHT22;62338;48.832;9.422;2023-05-07T04:44:25;13.20;1.00
4787;DHT22;62338;48.832;9.422;2023-05-07T04:46:27;13.30;1.00
4787;DHT22;62338;48.832;9.422;2023-05-07T04:48:29;13.30;1.00
4787;DHT22;62338;48.832;9.422;2023-05-07T04:50:31;13.30;1.00
4787;DHT22;62338;48.832;9.422;2023-05-07T04:52:33;13.50;99.90
4787;DHT22;62338;48.832;9.422;2023-05-07T04:54:35;13.60;99.90
4787;DHT22;62338;48.832;9.422;2023-05-07T04:56:37;13.70;99.90
4787;DHT22;62338;48.832;9.422;2023-05-07T04:58:39;13.80;99.90
4787;DHT22;62338;48.832;9.422;2023-05-07T05:00:41;13.80;99.90
4787;DHT22;62338;48.832;9.422;2023-05-07T05:02:43;13.90;99.90
4787;DHT22;62338;48.832;9.422;2023-05-07T05:04:45;13.90;99.90
4787;DHT22;62338;48.832;9.422;2023-05-07T05:06:47;13.80;99.90
4787;DHT22;62338;48.832;9.422;2023-05-07T05:08:49;13.80;99.90
4787;DHT22;62338;48.832;9.422;2023-05-07T05:10:50;13.70;99.90
4787;DHT22;62338;48.832;9.422;2023-05-07T05:12:52;13.70;99.90
4787;DHT22;62338;48.832;9.422;2023-05-07T05:14:54;13.60;99.90
4787;DHT22;62338;48.832;9.422;2023-05-07T05:16:56;13.60;99.90
4787;DHT22;62338;48.832;9.422;2023-05-07T05:18:57;13.60;99.90
4787;DHT22;62338;48.832;9.422;2023-05-07T05:20:59;13.60;99.90
4787;DHT22;62338;48.832;9.422;2023-05-07T05:23:01;13.60;99.90
4787;DHT22;62338;48.832;9.422;2023-05-07T05:25:03;13.60;99.90
4787;DHT22;62338;48.832;9.422;2023-05-07T05:27:05;13.60;99.90
4787;DHT22;62338;48.832;9.422;2023-05-07T05:29:07;13.70;99.90
4787;DHT22;62338;48.832;9.422;2023-05-07T05:31:09;13.70;99.90
4787;DHT22;62338;48.832;9.422;2023-05-07T05:33:11;13.80;99.90
4787;DHT22;62338;48.832;9.422;2023-05-07T05:35:12;13.80;99.90
4787;DHT22;62338;48.832;9.422;2023-05-07T05:37:14;13.90;99.90
4787;DHT22;62338;48.832;9.422;2023-05-07T05:39:17;13.90;99.90
4787;DHT22;62338;48.832;9.422;2023-05-07T05:41:18;13.90;99.90
4787;DHT22;62338;48.832;9.422;2023-05-07T05:43:20;14.00;99.90
4787;DHT22;62338;48.832;9.422;2023-05-07T05:45:22;14.10;99.90
4787;DHT22;62338;48.832;9.422;2023-05-07T05:47:23;14.30;99.90
4787;DHT22;62338;48.832;9.422;2023-05-07T05:49:25;14.40;99.90
4787;DHT22;62338;48.832;9.422;2023-05-07T05:51:27;14.50;93.00
4787;DHT22;62338;48.832;9.422;2023-05-07T05:53:29;14.60;41.90
4787;DHT22;62338;48.832;9.422;2023-05-07T05:55:30;14.80;11.20
4787;DHT22;62338;48.832;9.422;2023-05-07T05:57:33;14.90;1.00
4787;DHT22;62338;48.832;9.422;2023-05-07T05:59:35;15.00;1.00
4787;DHT22;62338;48.832;9.422;2023-05-07T06:01:37;15.20;1.00
4787;DHT22;62338;48.832;9.422;2023-05-07T06:03:39;15.40;1.00
4787;DHT22;62338;48.832;9.422;2023-05-07T06:05:41;15.50;1.00
4787;DHT22;62338;48.832;9.422;2023-05-07T06:07:42;15.60;99.90
4787;DHT22;62338;48.832;9.422;2023-05-07T06:09:44;15.50;99.90
4787;DHT22;62338;48.832;9.422;2023-05-07T06:11:46;15.60;99.90
4787;DHT22;62338;48.832;9.422;2023-05-07T06:13:48;15.70;99.90
4787;DHT22;62338;48.832;9.422;2023-05-07T06:15:49;15.90;99.90
4787;DHT22;62338;48.832;9.422;2023-05-07T06:17:51;16.20;99.90
4787;DHT22;62338;48.832;9.422;2023-05-07T06:19:53;16.50;1.00
4787;DHT22;62338;48.832;9.422;2023-05-07T06:21:55;16.80;99.90
4787;DHT22;62338;48.832;9.422;2023-05-07T06:23:59;17.10;1.00
4787;DHT22;62338;48.832;9.422;2023-05-07T06:26:01;17.30;1.00
4787;DHT22;62338;48.832;9.422;2023-05-07T06:28:03;17.30;1.00
4787;DHT22;62338;48.832;9.422;2023-05-07T06:30:05;17.40;99.90
4787;DHT22;62338;48.832;9.422;2023-05-07T06:32:12;17.50;99.90
4787;DHT22;62338;48.832;9.422;2023-05-07T06:34:14;17.60;99.90
4787;DHT22;62338;48.832;9.422;2023-05-07T06:36:16;17.60;99.90
4787;DHT22;62338;48.832;9.422;2023-05-07T06:38:18;17.50;99.90
4787;DHT22;62338;48.832;9.422;2023-05-07T06:40:19;17.50;99.90
4787;DHT22;62338;48.832;9.422;2023-05-07T06:42:21;17.60;99.90
4787;DHT22;62338;48.832;9.422;2023-05-07T06:44:23;17.70;99.90
4787;DHT22;62338;48.832;9.422;2023-05-07T06:46:25;17.70;1.00
4787;DHT22;62338;48.832;9.422;2023-05-07T06:48:27;17.80;1.00
4787;DHT22;62338;48.832;9.422;2023-05-07T06:50:28;18.00;99.90
4787;DHT22;62338;48.832;9.422;2023-05-07T06:52:30;18.00;42.20
4787;DHT22;62338;48.832;9.422;2023-05-07T06:54:32;18.00;99.90
4787;DHT22;62338;48.832;9.422;2023-05-07T06:56:33;18.30;95.80
4787;DHT22;62338;48.832;9.422;2023-05-07T06:58:37;19.40;99.90
4787;DHT22;62338;48.832;9.422;2023-05-07T07:00:38;20.50;1.00
4787;DHT22;62338;48.832;9.422;2023-05-07T07:02:40;21.10;99.90
4787;DHT22;62338;48.832;9.422;2023-05-07T07:04:42;19.50;1.00
4787;DHT22;62338;48.832;9.422;2023-05-07T07:06:44;22.30;1.00
4787;DHT22;62338;48.832;9.422;2023-05-07T07:08:46;23.20;1.00
4787;DHT22;62338;48.832;9.422;2023-05-07T07:10:48;23.90;99.90
4787;DHT22;62338;48.832;9.422;2023-05-07T07:12:50;24.60;99.90
4787;DHT22;62338;48.832;9.422;2023-05-07T07:14:53;25.00;99.90
4787;DHT22;62338;48.832;9.422;2023-05-07T07:16:55;25.10;99.90
4787;DHT22;62338;48.832;9.422;2023-05-07T07:18:57;25.70;99.90
4787;DHT22;62338;48.832;9.422;2023-05-07T07:20:59;25.80;99.90
4787;DHT22;62338;48.832;9.422;2023-05-07T07:23:01;26.00;99.90
4787;DHT22;62338;48.832;9.422;2023-05-07T07:25:03;25.30;99.90
4787;DHT22;62338;48.832;9.422;2023-05-07T07:27:04;25.30;99.90
4787;DHT22;62338;48.832;9.422;2023-05-07T07:29:06;25.50;99.90
4787;DHT22;62338;48.832;9.422;2023-05-07T07:31:08;25.80;99.90
4787;DHT22;62338;48.832;9.422;2023-05-07T07:33:10;26.10;99.90
4787;DHT22;62338;48.832;9.422;2023-05-07T07:35:12;25.70;99.50
4787;DHT22;62338;48.832;9.422;2023-05-07T07:37:13;25.80;99.90
4787;DHT22;62338;48.832;9.422;2023-05-07T07:39:15;25.80;99.90
4787;DHT22;62338;48.832;9.422;2023-05-07T07:41:17;26.40;99.90
4787;DHT22;62338;48.832;9.422;2023-05-07T07:43:19;26.30;91.80
4787;DHT22;62338;48.832;9.422;2023-05-07T07:45:21;26.40;93.60
4787;DHT22;62338;48.832;9.422;2023-05-07T07:47:22;26.10;74.70
4787;DHT22;62338;48.832;9.422;2023-05-07T07:49:24;25.50;85.30
4787;DHT22;62338;48.832;9.422;2023-05-07T07:51:26;25.20;96.90
4787;DHT22;62338;48.832;9.422;2023-05-07T07:53:28;24.60;95.40
4787;DHT22;62338;48.832;9.422;2023-05-07T07:55:29;25.20;99.90
4787;DHT22;62338;48.832;9.422;2023-05-07T07:57:32;25.80;99.90
4787;DHT22;62338;48.832;9.422;2023-05-07T07:59:34;25.20;99.90
4787;DHT22;62338;48.832;9.422;2023-05-07T08:01:37;26.70;99.90
4787;DHT22;62338;48.832;9.422;2023-05-07T08:03:39;27.20;90.70
4787;DHT22;62338;48.832;9.422;2023-05-07T08:05:41;27.50;83.50
4787;DHT22;62338;48.832;9.422;2023-05-07T08:07:43;27.50;64.70
4787;DHT22;62338;48.832;9.422;2023-05-07T08:09:45;27.10;45.50
4787;DHT22;62338;48.832;9.422;2023-05-07T08:11:46;26.50;46.60
4787;DHT22;62338;48.832;9.422;2023-05-07T08:13:48;26.40;78.70
4787;DHT22;62338;48.832;9.422;2023-05-07T08:15:50;25.80;90.00
4787;DHT22;62338;48.832;9.422;2023-05-07T08:17:51;25.20;99.90
4787;DHT22;62338;48.832;9.422;2023-05-07T08:19:53;25.00;99.90
4787;DHT22;62338;48.832;9.422;2023-05-07T08:21:55;25.30;99.90
4787;DHT22;62338;48.832;9.422;2023-05-07T08:23:57;25.80;99.90
4787;DHT22;62338;48.832;9.422;2023-05-07T08:25:58;25.70;99.90
4787;DHT22;62338;48.832;9.422;2023-05-07T08:28:01;26.60;99.90
4787;DHT22;62338;48.832;9.422;2023-05-07T08:30:03;26.70;99.90
4787;DHT22;62338;48.832;9.422;2023-05-07T08:32:05;26.90;99.90
4787;DHT22;62338;48.832;9.422;2023-05-07T08:34:07;27.40;94.60
4787;DHT22;62338;48.832;9.422;2023-05-07T08:36:10;26.60;81.20
4787;DHT22;62338;48.832;9.422;2023-05-07T08:38:12;26.00;96.20
4787;DHT22;62338;48.832;9.422;2023-05-07T08:40:14;25.30;99.90
4787;DHT22;62338;48.832;9.422;2023-05-07T08:42:17;25.80;99.90
4787;DHT22;62338;48.832;9.422;2023-05-07T08:44:22;26.30;99.90
4787;DHT22;62338;48.832;9.422;2023-05-07T08:46:25;26.60;99.90
4787;DHT22;62338;48.832;9.422;2023-05-07T08:48:27;27.40;99.90
4787;DHT22;62338;48.832;9.422;2023-05-07T08:50:31;27.80;99.90
4787;DHT22;62338;48.832;9.422;2023-05-07T08:52:33;28.00;87.50
4787;DHT22;62338;48.832;9.422;2023-05-07T08:54:37;26.60;62.60
4787;DHT22;62338;48.832;9.422;2023-05-07T08:56:39;26.50;98.40
4787;DHT22;62338;48.832;9.422;2023-05-07T08:58:42;26.50;99.90
4787;DHT22;62338;48.832;9.422;2023-05-07T09:00:44;26.60;99.90
4787;DHT22;62338;48.832;9.422;2023-05-07T09:02:46;26.70;99.90
4787;DHT22;62338;48.832;9.422;2023-05-07T09:04:48;26.40;99.90
4787;DHT22;62338;48.832;9.422;2023-05-07T09:06:49;26.60;90.90
4787;DHT22;62338;48.832;9.422;2023-05-07T09:08:53;26.70;79.40
4787;DHT22;62338;48.832;9.422;2023-05-07T09:10:55;26.00;99.90
4787;DHT22;62338;48.832;9.422;2023-05-07T09:12:57;26.60;95.70
4787;DHT22;62338;48.832;9.422;2023-05-07T09:14:59;27.10;92.90
4787;DHT22;62338;48.832;9.422;2023-05-07T09:17:01;27.70;78.60
4787;DHT22;62338;48.832;9.422;2023-05-07T09:19:03;28.60;89.50
4787;DHT22;62338;48.832;9.422;2023-05-07T09:21:04;29.70;58.00
4787;DHT22;62338;48.832;9.422;2023-05-07T09:23:07;30.00;23.90
4787;DHT22;62338;48.832;9.422;2023-05-07T09:25:09;29.40;13.90
4787;DHT22;62338;48.832;9.422;2023-05-07T09:27:11;28.90;10.00
4787;DHT22;62338;48.832;9.422;2023-05-07T09:29:15;29.30;6.10
4787;DHT22;62338;48.832;9.422;2023-05-07T09:31:18;29.50;1.00
4787;DHT22;62338;48.832;9.422;2023-05-07T09:33:27;29.70;1.00
4787;DHT22;62338;48.832;9.422;2023-05-07T09:35:29;29.80;1.00
4787;DHT22;62338;48.832;9.422;2023-05-07T09:37:31;29.70;1.00
4787;DHT22;62338;48.832;9.422;2023-05-07T09:39:44;29.90;1.00
4787;DHT22;62338;48.832;9.422;2023-05-07T09:41:47;30.60;1.00
4787;DHT22;62338;48.832;9.422;2023-05-07T09:43:53;30.40;1.00
4787;DHT22;62338;48.832;9.422;2023-05-07T09:45:55;30.80;1.00
4787;DHT22;62338;48.832;9.422;2023-05-07T09:47:58;29.90;1.00
4787;DHT22;62338;48.832;9.422;2023-05-07T09:50:03;30.10;1.00
4787;DHT22;62338;48.832;9.422;2023-05-07T09:52:07;30.70;1.00
4787;DHT22;62338;48.832;9.422;2023-05-07T09:54:10;30.60;1.00
4787;DHT22;62338;48.832;9.422;2023-05-07T09:56:14;31.20;1.00
4787;DHT22;62338;48.832;9.422;2023-05-07T09:58:18;31.00;1.00
4787;DHT22;62338;48.832;9.422;2023-05-07T10:00:21;28.80;1.00
4787;DHT22;62338;48.832;9.422;2023-05-07T10:02:25;27.60;1.00
4787;DHT22;62338;48.832;9.422;2023-05-07T10:04:29;27.00;1.00
4787;DHT22;62338;48.832;9.422;2023-05-07T10:06:31;26.80;1.00
4787;DHT22;62338;48.832;9.422;2023-05-07T10:08:33;27.30;1.00
4787;DHT22;62338;48.832;9.422;2023-05-07T10:10:36;27.40;1.00
4787;DHT22;62338;48.832;9.422;2023-05-07T10:12:40;27.70;1.00
4787;DHT22;62338;48.832;9.422;2023-05-07T10:14:43;28.60;1.00
4787;DHT22;62338;48.832;9.422;2023-05-07T10:16:46;28.10;1.00
4787;DHT22;62338;48.832;9.422;2023-05-07T10:18:49;29.10;1.00
4787;DHT22;62338;48.832;9.422;2023-05-07T10:20:53;28.90;1.00
4787;DHT22;62338;48.832;9.422;2023-05-07T10:22:56;29.00;1.00
4787;DHT22;62338;48.832;9.422;2023-05-07T10:24:59;27.30;1.00
4787;DHT22;62338;48.832;9.422;2023-05-07T10:27:10;26.50;1.00
4787;DHT22;62338;48.832;9.422;2023-05-07T10:33:51;24.90;42.50
4787;DHT22;62338;48.832;9.422;2023-05-07T10:36:01;24.80;82.50
4787;DHT22;62338;48.832;9.422;2023-05-07T10:38:06;24.60;97.10
4787;DHT22;62338;48.832;9.422;2023-05-07T10:40:09;24.10;99.90
4787;DHT22;62338;48.832;9.422;2023-05-07T10:42:14;23.80;99.90
4787;DHT22;62338;48.832;9.422;2023-05-07T10:44:28;23.80;99.90
4787;DHT22;62338;48.832;9.422;2023-05-07T10:46:30;23.60;99.90
4787;DHT22;62338;48.832;9.422;2023-05-07T10:51:18;23.10;99.90
4787;DHT22;62338;48.832;9.422;2023-05-07T10:53:23;23.10;99.90
4787;DHT22;62338;48.832;9.422;2023-05-07T10:55:25;23.20;99.90
4787;DHT22;62338;48.832;9.422;2023-05-07T10:57:34;23.20;99.90
4787;DHT22;62338;48.832;9.422;2023-05-07T10:59:38;23.20;99.90
4787;DHT22;62338;48.832;9.422;2023-05-07T11:01:50;23.00;99.90
4787;DHT22;62338;48.832;9.422;2023-05-07T11:04:12;22.90;99.90
4787;DHT22;62338;48.832;9.422;2023-05-07T11:06:15;22.90;99.90
4787;DHT22;62338;48.832;9.422;2023-05-07T11:08:17;22.80;1.00
4787;DHT22;62338;48.832;9.422;2023-05-07T11:10:19;22.70;1.00
4787;DHT22;62338;48.832;9.422;2023-05-07T11:14:44;22.60;1.00
4787;DHT22;62338;48.832;9.422;2023-05-07T11:17:04;22.70;1.00
4787;DHT22;62338;48.832;9.422;2023-05-07T11:19:06;22.80;1.00
4787;DHT22;62338;48.832;9.422;2023-05-07T11:21:08;23.00;1.00
4787;DHT22;62338;48.832;9.422;2023-05-07T11:25:33;23.20;99.90
4787;DHT22;62338;48.832;9.422;2023-05-07T11:27:35;23.40;99.90
4787;DHT22;62338;48.832;9.422;2023-05-07T11:29:37;23.40;99.90
4787;DHT22;62338;48.832;9.422;2023-05-07T11:31:39;23.50;1.00
4787;DHT22;62338;48.832;9.422;2023-05-07T11:33:43;23.70;1.00
4787;DHT22;62338;48.832;9.422;2023-05-07T11:35:46;24.00;99.90
4787;DHT22;62338;48.832;9.422;2023-05-07T11:37:48;24.20;99.90
4787;DHT22;62338;48.832;9.422;2023-05-07T11:39:50;24.60;99.90
4787;DHT22;62338;48.832;9.422;2023-05-07T11:41:57;24.50;99.90
4787;DHT22;62338;48.832;9.422;2023-05-07T11:43:59;24.50;99.90
4787;DHT22;62338;48.832;9.422;2023-05-07T11:46:09;24.50;99.90
4787;DHT22;62338;48.832;9.422;2023-05-07T11:48:12;24.40;1.00
4787;DHT22;62338;48.832;9.422;2023-05-07T11:50:14;24.60;99.90
4787;DHT22;62338;48.832;9.422;2023-05-07T11:52:17;24.50;99.90
4787;DHT22;62338;48.832;9.422;2023-05-07T11:54:19;24.50;99.90
4787;DHT22;62338;48.832;9.422;2023-05-07T11:56:21;24.40;99.90
4787;DHT22;62338;48.832;9.422;2023-05-07T11:58:25;24.30;99.90
4787;DHT22;62338;48.832;9.422;2023-05-07T12:00:27;24.30;99.90
4787;DHT22;62338;48.832;9.422;2023-05-07T12:02:29;24.30;99.90
4787;DHT22;62338;48.832;9.422;2023-05-07T12:04:31;24.20;99.90
4787;DHT22;62338;48.832;9.422;2023-05-07T12:06:36;24.30;99.90
4787;DHT22;62338;48.832;9.422;2023-05-07T12:08:40;24.30;99.90
4787;DHT22;62338;48.832;9.422;2023-05-07T12:10:43;24.30;99.90
4787;DHT22;62338;48.832;9.422;2023-05-07T12:12:46;24.30;99.90
4787;DHT22;62338;48.832;9.422;2023-05-07T12:14:48;24.10;99.90
4787;DHT22;62338;48.832;9.422;2023-05-07T12:16:50;23.90;99.90
4787;DHT22;62338;48.832;9.422;2023-05-07T12:18:52;23.80;99.90
4787;DHT22;62338;48.832;9.422;2023-05-07T12:20:56;23.70;99.90
4787;DHT22;62338;48.832;9.422;2023-05-07T12:22:58;23.60;99.90
4787;DHT22;62338;48.832;9.422;2023-05-07T12:25:00;23.50;1.00
4787;DHT22;62338;48.832;9.422;2023-05-07T12:27:02;23.40;1.00
4787;DHT22;62338;48.832;9.422;2023-05-07T12:29:05;23.00;1.00
4787;DHT22;62338;48.832;9.422;2023-05-07T12:31:07;22.40;99.90
4787;DHT22;62338;48.832;9.422;2023-05-07T12:33:10;22.00;1.00
4787;DHT22;62338;48.832;9.422;2023-05-07T12:35:11;21.70;99.90
4787;DHT22;62338;48.832;9.422;2023-05-07T12:37:14;21.50;99.90
4787;DHT22;62338;48.832;9.422;2023-05-07T12:39:16;21.40;99.90
4787;DHT22;62338;48.832;9.422;2023-05-07T12:41:17;21.40;1.00
4787;DHT22;62338;48.832;9.422;2023-05-07T12:43:21;21.30;1.00
4787;DHT22;62338;48.832;9.422;2023-05-07T12:45:23;21.30;1.00
4787;DHT22;62338;48.832;9.422;2023-05-07T12:47:27;21.20;1.00
4787;DHT22;62338;48.832;9.422;2023-05-07T12:49:29;21.20;1.00
4787;DHT22;62338;48.832;9.422;2023-05-07T12:51:30;21.00;1.00
4787;DHT22;62338;48.832;9.422;2023-05-07T12:53:32;21.00;1.00
4787;DHT22;62338;48.832;9.422;2023-05-07T12:55:49;20.90;99.90
4787;DHT22;62338;48.832;9.422;2023-05-07T12:57:51;20.80;1.00
4787;DHT22;62338;48.832;9.422;2023-05-07T12:59:57;20.70;1.00
4787;DHT22;62338;48.832;9.422;2023-05-07T13:01:59;20.40;99.90
4787;DHT22;62338;48.832;9.422;2023-05-07T13:04:03;20.10;1.00
4787;DHT22;62338;48.832;9.422;2023-05-07T13:06:09;19.80;99.90
4787;DHT22;62338;48.832;9.422;2023-05-07T13:08:12;19.30;1.00
4787;DHT22;62338;48.832;9.422;2023-05-07T13:10:13;18.80;99.90
4787;DHT22;62338;48.832;9.422;2023-05-07T13:12:15;18.50;1.00
4787;DHT22;62338;48.832;9.422;2023-05-07T13:14:17;18.00;99.90
4787;DHT22;62338;48.832;9.422;2023-05-07T13:16:19;17.70;1.00
4787;DHT22;62338;48.832;9.422;2023-05-07T13:18:24;17.30;99.90
4787;DHT22;62338;48.832;9.422;2023-05-07T13:20:26;16.80;1.00
4787;DHT22;62338;48.832;9.422;2023-05-07T13:22:28;16.40;1.00